Time;durP1;ratioP1;P1;durP2;ratioP2;P2;SDS_P1;SDS_P2;PMS_P1;PMS_P2;Temp;Humidity;BMP_temperature;BMP_pressure;BME280_temperature;BME280_humidity;BME280_pressure;Samples;Min_cycle;Max_cycle;Signal;HPM_P1;HPM_P2
2023/06/01 00:02:18;;;;;;;6.38;5.60;;;13.60;99.90;;;14.67;68.17;98054.91;5144006;28;20224;-77
2023/06/01 00:04:52;;;;;;;5.90;5.40;;;13.50;99.90;;;14.58;68.49;98059.63;5143736;28;20607;-77
2023/06/01 00:07:29;;;;;;;5.80;5.30;;;13.40;99.90;;;14.52;69.21;98056.81;5143765;28;20776;-78
2023/06/01 00:10:03;;;;;;;6.93;5.22;;;13.40;99.90;;;14.45;69.15;98062.44;5138768;28;20231;-77
2023/06/01 00:12:36;;;;;;;5.28;4.88;;;13.40;99.90;;;14.47;70.42;98053.09;5149230;28;20219;-78
2023/06/01 00:15:10;;;;;;;5.80;5.22;;;13.40;99.90;;;14.48;70.43;98053.19;5147609;28;20223;-78
2023/06/01 00:17:43;;;;;;;7.10;5.15;;;13.40;99.90;;;14.48;71.00;98054.84;5147883;28;20242;-77
2023/06/01 00:20:29;;;;;;;5.63;5.10;;;13.40;99.90;;;14.48;69.99;98052.28;5142939;28;20227;-78
2023/06/01 00:23:04;;;;;;;7.25;5.47;;;13.40;99.90;;;14.37;71.27;98060.41;5153386;28;20260;-78
2023/06/01 00:25:37;;;;;;;8.80;5.45;;;13.30;99.90;;;14.27;72.03;98053.06;5144025;28;20222;-77
2023/06/01 00:28:10;;;;;;;5.75;5.25;;;13.20;99.90;;;14.24;71.03;98058.09;5149623;28;20588;-78
2023/06/01 00:30:43;;;;;;;6.05;5.47;;;13.10;99.90;;;14.16;71.87;98059.41;5143539;28;20236;-78
2023/06/01 00:33:16;;;;;;;7.03;5.97;;;13.10;99.90;;;14.01;71.62;98051.00;5151731;28;20711;-78
2023/06/01 00:35:50;;;;;;;7.00;6.38;;;13.00;99.90;;;14.01;71.60;98056.16;5145311;28;20223;-78
2023/06/01 00:38:25;;;;;;;6.10;5.60;;;13.00;99.90;;;14.00;72.04;98054.41;5145793;28;20237;-77
2023/06/01 00:40:58;;;;;;;7.00;6.40;;;13.00;99.90;;;13.92;72.96;98049.75;5142613;28;20214;-77
2023/06/01 00:43:31;;;;;;;6.65;6.05;;;13.00;99.90;;;13.96;72.33;98051.69;5148202;28;20255;-78
2023/06/01 00:46:06;;;;;;;7.63;6.95;;;13.00;99.90;;;13.96;72.84;98059.41;5145882;28;20259;-77
2023/06/01 00:48:39;;;;;;;6.88;6.30;;;13.00;99.90;;;13.97;73.15;98050.88;5147958;28;20234;-78
2023/06/01 00:51:14;;;;;;;6.97;6.30;;;13.00;99.90;;;14.01;72.64;98048.44;5140711;28;20310;-78
2023/06/01 00:53:50;;;;;;;6.90;6.32;;;12.90;99.90;;;13.97;72.18;98053.44;5144409;28;20223;-78
2023/06/01 00:56:23;;;;;;;7.32;6.30;;;12.90;99.90;;;13.91;72.70;98053.16;5147065;28;20293;-77
2023/06/01 00:58:57;;;;;;;6.22;5.68;;;12.90;99.90;;;13.91;72.75;98048.00;5139518;28;20236;-78
2023/06/01 01:01:31;;;;;;;6.20;5.60;;;12.90;99.90;;;13.87;72.68;98047.78;5151978;28;20675;-75
2023/06/01 01:04:05;;;;;;;7.00;6.32;;;12.80;99.90;;;13.82;73.42;98047.59;5158310;28;20219;-78
2023/06/01 01:06:50;;;;;;;7.35;5.78;;;12.70;99.90;;;13.79;72.68;98044.84;5147787;28;20274;-78
2023/06/01 01:09:41;;;;;;;5.97;5.43;;;12.70;99.90;;;13.74;73.45;98041.19;5149845;28;20227;-78
2023/06/01 01:12:23;;;;;;;5.78;5.25;;;12.70;99.90;;;13.77;74.13;98038.78;5139228;28;21095;-77
2023/06/01 01:15:08;;;;;;;8.57;6.35;;;12.70;99.90;;;13.69;73.60;98045.22;5148116;28;20266;-78
2023/06/01 01:17:45;;;;;;;7.13;6.30;;;12.60;99.90;;;13.62;74.16;98043.16;5141499;28;20220;-78
2023/06/01 01:20:24;;;;;;;6.82;6.13;;;12.60;99.90;;;13.57;75.03;98044.66;5155822;28;20694;-78
2023/06/01 01:23:16;;;;;;;8.98;6.25;;;12.50;99.90;;;13.48;74.79;98048.53;5147103;28;20282;-76
2023/06/01 01:26:15;;;;;;;6.45;5.85;;;12.40;99.90;;;13.48;74.27;98040.81;5152393;28;20680;-78
2023/06/01 01:28:52;;;;;;;7.05;6.40;;;12.40;99.90;;;13.38;75.83;98046.31;5143895;28;20219;-78
2023/06/01 01:31:26;;;;;;;7.18;6.45;;;12.40;99.90;;;13.31;76.26;98036.56;5148480;28;20246;-78
2023/06/01 01:34:00;;;;;;;8.15;7.30;;;12.30;99.90;;;13.34;76.26;98043.53;5149379;28;20237;-78
2023/06/01 01:36:33;;;;;;;6.90;6.22;;;12.30;99.90;;;13.30;76.12;98039.91;5146423;28;20229;-77
2023/06/01 01:39:06;;;;;;;7.03;6.25;;;12.30;99.90;;;13.18;75.89;98042.72;5145415;28;20227;-77
2023/06/01 01:41:40;;;;;;;7.20;6.60;;;12.20;99.90;;;13.15;76.90;98034.00;5151436;28;20251;-77
2023/06/01 01:44:15;;;;;;;7.00;6.32;;;12.20;99.90;;;13.17;76.56;98037.53;5150335;28;20354;-77
2023/06/01 01:46:58;;;;;;;8.15;7.35;;;12.20;99.90;;;13.20;76.61;98032.53;5149172;28;20277;-77
2023/06/01 01:49:41;;;;;;;7.55;6.82;;;12.20;99.90;;;13.00;77.44;98027.28;5145749;28;20636;-78
2023/06/01 01:52:19;;;;;;;7.43;6.50;;;12.00;99.90;;;12.98;77.31;98028.91;5134292;28;20223;-77
2023/06/01 01:54:54;;;;;;;6.75;6.07;;;12.00;99.90;;;12.94;77.73;98027.00;5157433;28;20227;-78
2023/06/01 01:57:27;;;;;;;7.47;6.80;;;12.00;99.90;;;12.97;77.74;98022.00;5152309;28;20226;-78
2023/06/01 02:00:03;;;;;;;7.75;6.90;;;12.00;99.90;;;12.97;77.95;98023.69;5151054;28;20261;-78
2023/06/01 02:02:36;;;;;;;7.60;6.82;;;12.00;99.90;;;12.93;78.18;98026.91;5153247;28;20226;-79
2023/06/01 02:05:09;;;;;;;7.82;7.03;;;12.00;99.90;;;12.97;78.42;98028.84;5147339;28;20223;-78
2023/06/01 02:07:42;;;;;;;7.75;7.05;;;12.00;99.90;;;12.94;78.98;98029.56;5149986;28;20319;-77
2023/06/01 02:10:16;;;;;;;8.63;7.05;;;11.90;99.90;;;12.95;79.08;98027.88;5147825;28;20295;-79
2023/06/01 02:12:49;;;;;;;7.72;6.95;;;12.00;99.90;;;12.98;78.83;98030.59;5143672;28;20223;-79
2023/06/01 02:15:23;;;;;;;7.85;7.15;;;12.00;99.90;;;13.06;78.27;98025.03;5150708;28;20242;-79
2023/06/01 02:17:56;;;;;;;8.52;7.72;;;12.00;99.90;;;13.06;78.02;98019.91;5142967;28;20215;-78
2023/06/01 02:20:30;;;;;;;8.18;7.38;;;12.00;99.90;;;13.01;78.29;98021.34;5147279;28;20227;-78
2023/06/01 02:23:03;;;;;;;8.10;7.47;;;12.00;99.90;;;12.94;78.81;98027.00;5138411;28;20257;-78
2023/06/01 02:25:36;;;;;;;8.55;7.65;;;12.00;99.90;;;12.82;78.30;98027.25;5156079;28;20321;-78
2023/06/01 02:28:10;;;;;;;7.72;6.80;;;11.80;99.90;;;12.82;78.46;98018.69;5147803;28;20330;-78
2023/06/01 02:30:45;;;;;;;8.13;7.43;;;11.90;99.90;;;12.79;79.27;98023.63;5151109;28;20285;-77
2023/06/01 02:33:18;;;;;;;7.47;6.75;;;11.90;99.90;;;12.80;79.09;98030.53;5145910;28;20325;-78
2023/06/01 02:35:51;;;;;;;8.35;7.57;;;11.80;99.90;;;12.72;79.53;98035.28;5150669;28;20648;-78
2023/06/01 02:38:24;;;;;;;8.70;7.78;;;11.80;99.90;;;12.75;80.04;98031.97;5143275;28;20227;-78
2023/06/01 02:40:57;;;;;;;8.27;7.20;;;11.70;99.90;;;12.77;79.71;98026.13;5144930;28;20239;-78
2023/06/01 02:43:30;;;;;;;6.97;6.32;;;11.80;99.90;;;12.73;79.72;98031.03;5144574;28;20766;-78
2023/06/01 02:46:05;;;;;;;7.88;7.18;;;11.80;99.90;;;12.70;79.71;98020.59;5141796;28;20763;-78
2023/06/01 02:48:38;;;;;;;9.02;7.28;;;11.70;99.90;;;12.48;79.63;98022.06;5142989;28;20222;-78
2023/06/01 02:51:12;;;;;;;8.30;7.47;;;11.60;99.90;;;12.51;79.41;98016.22;5146238;28;20215;-77
2023/06/01 02:53:45;;;;;;;7.40;6.45;;;11.50;99.90;;;12.51;79.58;98019.66;5144601;28;20592;-79
2023/06/01 02:56:18;;;;;;;11.38;8.40;;;11.50;99.90;;;12.48;79.95;98016.94;5149442;28;20224;-78
2023/06/01 02:58:52;;;;;;;8.63;7.30;;;11.50;99.90;;;12.45;79.82;98026.13;5143325;28;20216;-80
2023/06/01 03:01:27;;;;;;;8.05;7.25;;;11.40;99.90;;;12.42;79.85;98021.75;5149186;28;20227;-78
2023/06/01 03:04:02;;;;;;;7.80;7.07;;;11.50;99.90;;;12.37;80.38;98018.94;5138097;28;20247;-77
2023/06/01 03:06:37;;;;;;;7.55;6.88;;;11.40;99.90;;;12.32;80.14;98022.94;5142187;28;20332;-78
2023/06/01 03:09:12;;;;;;;7.78;7.10;;;11.40;99.90;;;12.31;80.77;98020.31;5142782;28;20247;-77
2023/06/01 03:11:46;;;;;;;8.15;7.45;;;11.40;99.90;;;12.33;80.26;98017.03;5154496;28;20249;-78
2023/06/01 03:14:19;;;;;;;8.63;7.82;;;11.40;99.90;;;12.16;80.51;98012.66;5149605;28;20234;-77
2023/06/01 03:16:53;;;;;;;9.82;7.75;;;11.20;99.90;;;12.07;80.66;98010.50;5150314;28;20703;-78
2023/06/01 03:19:27;;;;;;;7.88;7.15;;;11.10;99.90;;;12.04;81.30;98009.47;5153180;28;20254;-79
2023/06/01 03:22:00;;;;;;;7.82;7.13;;;11.10;99.90;;;12.00;81.91;98013.56;5154318;28;22003;-78
2023/06/01 03:24:34;;;;;;;7.60;6.88;;;11.00;99.90;;;12.04;81.34;98024.84;5146598;28;20227;-78
2023/06/01 03:27:08;;;;;;;8.30;7.57;;;11.00;99.90;;;12.11;81.50;98022.69;5148930;28;20278;-78
2023/06/01 03:29:41;;;;;;;7.60;6.95;;;11.10;99.90;;;12.06;81.65;98026.69;5150009;28;20254;-79
2023/06/01 03:32:16;;;;;;;7.85;7.05;;;11.10;99.90;;;12.07;81.51;98028.44;5145181;28;20302;-78
2023/06/01 03:34:49;;;;;;;7.45;6.75;;;11.10;99.90;;;12.09;82.23;98026.84;5143898;28;20662;-78
2023/06/01 03:37:22;;;;;;;8.18;7.40;;;11.20;99.90;;;11.97;82.20;98025.31;5154735;28;20227;-78
2023/06/01 03:39:55;;;;;;;9.23;7.25;;;11.00;99.90;;;11.99;81.52;98033.94;5151627;28;20250;-76
2023/06/01 03:42:28;;;;;;;8.10;7.30;;;11.00;99.90;;;12.06;81.19;98031.81;5145604;28;20295;-78
2023/06/01 03:45:04;;;;;;;7.60;6.90;;;11.10;99.90;;;12.06;81.60;98030.94;5150389;28;20235;-79
2023/06/01 03:47:39;;;;;;;7.97;7.20;;;11.10;99.90;;;12.16;81.39;98030.59;5147486;28;20231;-79
2023/06/01 03:50:13;;;;;;;8.48;7.10;;;11.20;99.90;;;12.22;81.48;98032.63;5149037;28;20272;-78
2023/06/01 03:52:46;;;;;;;7.80;7.00;;;11.30;99.90;;;12.25;81.48;98030.25;5143910;28;20270;-79
2023/06/01 03:55:20;;;;;;;8.30;7.50;;;11.30;99.90;;;12.34;80.98;98033.28;5151587;28;20227;-78
2023/06/01 03:57:53;;;;;;;8.07;7.30;;;11.30;99.90;;;12.32;81.00;98032.31;5145205;28;20215;-80
2023/06/01 04:00:26;;;;;;;8.52;7.32;;;11.30;99.90;;;12.32;81.23;98040.00;5140101;28;20240;-79
2023/06/01 04:03:04;;;;;;;8.63;7.80;;;11.30;99.90;;;12.34;80.83;98038.41;5141461;28;20645;-80
2023/06/01 04:05:37;;;;;;;7.82;7.03;;;11.30;99.90;;;12.37;80.47;98038.56;5141500;28;20219;-80
2023/06/01 04:08:10;;;;;;;9.20;7.75;;;11.30;99.90;;;12.37;80.44;98039.44;5145815;28;20589;-80
2023/06/01 04:10:43;;;;;;;8.82;7.93;;;11.30;99.90;;;12.39;81.03;98047.25;5145597;28;20220;-80
2023/06/01 04:13:17;;;;;;;8.85;8.02;;;11.30;99.90;;;12.43;80.98;98045.72;5149074;28;20227;-77
2023/06/01 04:15:50;;;;;;;9.73;8.23;;;11.30;99.90;;;12.38;80.96;98050.56;5142157;28;20220;-78
2023/06/01 04:18:25;;;;;;;8.57;7.88;;;11.30;99.90;;;12.41;80.79;98055.88;5148860;28;20273;-78
2023/06/01 04:20:58;;;;;;;8.70;7.80;;;11.40;99.90;;;12.43;80.47;98054.28;5146854;28;20231;-78
2023/06/01 04:23:31;;;;;;;9.07;8.13;;;11.40;99.90;;;12.49;80.29;98051.16;5140747;28;20239;-77
2023/06/01 04:26:04;;;;;;;9.85;8.05;;;11.40;99.90;;;12.56;80.33;98054.13;5139672;28;20775;-78
2023/06/01 04:28:43;;;;;;;8.40;7.70;;;11.40;99.90;;;12.67;79.64;98066.59;5122350;28;20223;-77
2023/06/01 04:31:18;;;;;;;9.30;8.50;;;11.50;99.90;;;12.67;79.82;98064.03;5139552;28;20250;-77
2023/06/01 04:33:53;;;;;;;8.43;7.63;;;11.50;99.90;;;12.72;79.17;98067.75;5145378;28;20227;-79
2023/06/01 04:40:38;;;;;;;8.57;7.68;;;11.60;99.90;;;12.80;78.52;98062.19;5140116;28;20292;-78
2023/06/01 04:43:12;;;;;;;8.13;7.32;;;11.70;99.90;;;12.91;78.28;98059.31;5121154;28;20239;-77
2023/06/01 04:45:45;;;;;;;9.30;7.28;;;11.80;99.90;;;13.01;77.68;98067.53;5121812;28;20232;-78
2023/06/01 04:48:20;;;;;;;8.13;7.38;;;11.90;99.90;;;12.91;77.79;98062.75;5121211;28;20242;-76
2023/06/01 04:50:55;;;;;;;7.90;7.20;;;11.90;99.90;;;13.12;77.46;98059.50;5122548;28;20227;-76
2023/06/01 04:53:28;;;;;;;7.93;7.22;;;12.10;99.90;;;13.35;76.12;98064.13;5123616;28;20235;-78
2023/06/01 04:56:01;;;;;;;8.32;7.50;;;12.20;99.90;;;13.73;75.99;98054.81;5121481;28;20235;-77
2023/06/01 04:58:37;;;;;;;9.20;6.90;;;12.60;99.90;;;14.40;71.96;98054.53;5122134;28;20253;-78
2023/06/01 05:01:15;;;;;;;8.10;7.40;;;13.20;99.90;;;14.95;70.31;98063.84;5121519;28;20499;-78
2023/06/01 05:03:48;;;;;;;9.50;6.65;;;13.70;99.90;;;15.56;68.25;98058.66;5124018;28;20227;-78
2023/06/01 05:06:24;;;;;;;7.53;6.82;;;14.20;99.90;;;16.10;65.28;98053.09;5123568;28;20732;-77
2023/06/01 05:08:58;;;;;;;7.00;6.30;;;14.50;99.90;;;16.55;63.37;98053.06;5125966;28;20238;-77
2023/06/01 05:11:31;;;;;;;8.80;6.38;;;15.00;99.90;;;16.48;62.57;98046.78;5127881;28;20224;-78
2023/06/01 05:14:04;;;;;;;7.22;6.53;;;15.20;99.90;;;16.82;60.80;98048.03;5125326;28;20704;-76
2023/06/01 05:16:38;;;;;;;6.90;6.25;;;15.40;99.90;;;17.32;58.62;98046.31;5124372;28;20720;-78
2023/06/01 05:19:12;;;;;;;6.63;6.03;;;15.60;99.90;;;17.84;56.79;98052.34;5123423;28;20236;-78
2023/06/01 05:21:47;;;;;;;7.90;6.97;;;15.90;99.90;;;18.15;56.14;98051.59;5121996;28;20250;-78
2023/06/01 05:24:20;;;;;;;7.60;6.55;;;15.90;99.90;;;18.46;55.01;98051.66;5122596;28;20258;-78
2023/06/01 05:26:53;;;;;;;7.78;6.70;;;16.30;99.90;;;18.64;54.38;98055.59;5122306;28;20223;-79
2023/06/01 05:29:27;;;;;;;7.40;5.90;;;16.40;99.70;;;18.92;53.14;98048.66;5123577;28;20242;-79
2023/06/01 05:32:00;;;;;;;8.35;6.55;;;16.60;98.80;;;19.44;52.12;98043.09;5120970;28;20238;-79
2023/06/01 05:34:33;;;;;;;6.70;5.93;;;17.20;98.20;;;19.62;51.31;98053.03;5122583;28;20259;-80
2023/06/01 05:37:08;;;;;;;5.97;5.32;;;17.40;97.10;;;19.98;50.66;98053.06;5121511;28;20232;-78
2023/06/01 05:39:41;;;;;;;6.78;5.88;;;17.60;96.70;;;20.22;49.73;98052.75;5123952;28;20227;-79
2023/06/01 05:42:14;;;;;;;6.85;5.70;;;18.00;95.90;;;20.53;49.49;98050.84;5120529;28;21861;-78
2023/06/01 05:44:47;;;;;;;6.20;5.20;;;18.30;95.30;;;20.79;48.44;98042.69;5124690;28;20805;-79
2023/06/01 05:47:21;;;;;;;6.43;5.82;;;18.70;94.40;;;20.94;47.96;98045.59;5125394;28;20260;-78
2023/06/01 05:49:54;;;;;;;6.68;5.93;;;18.80;93.80;;;21.29;46.43;98041.03;5122477;28;20238;-79
2023/06/01 05:52:29;;;;;;;6.53;5.88;;;19.10;92.90;;;21.46;46.19;98045.66;5122448;28;20849;-79
2023/06/01 05:55:02;;;;;;;5.88;5.38;;;19.30;92.60;;;21.88;44.86;98045.50;5123644;28;20239;-78
2023/06/01 05:57:35;;;;;;;6.35;5.22;;;19.70;91.70;;;22.18;44.04;98039.03;5124513;28;20227;-78
2023/06/01 06:00:11;;;;;;;5.47;4.90;;;19.80;91.00;;;22.40;42.65;98043.66;5122630;28;20243;-78
2023/06/01 06:02:44;;;;;;;6.45;5.22;;;19.90;90.30;;;22.60;42.24;98056.06;5122309;28;20242;-76
2023/06/01 06:05:18;;;;;;;6.53;5.45;;;20.00;90.20;;;22.88;41.34;98045.13;5124738;28;20242;-78
2023/06/01 06:07:52;;;;;;;6.93;5.35;;;20.20;88.60;;;23.19;40.04;98042.88;5123093;28;20228;-79
2023/06/01 06:10:26;;;;;;;5.18;4.65;;;20.50;87.00;;;23.32;39.99;98042.16;5122492;28;20237;-79
2023/06/01 06:12:59;;;;;;;5.35;4.85;;;20.40;86.60;;;23.60;39.51;98042.38;5125573;28;20758;-79
2023/06/01 06:15:32;;;;;;;5.43;4.85;;;20.60;87.00;;;23.36;39.81;98043.91;5123839;28;20228;-77
2023/06/01 06:18:06;;;;;;;5.63;4.85;;;20.60;86.70;;;23.27;39.79;98040.34;5129515;28;20220;-79
2023/06/01 06:20:39;;;;;;;6.15;4.80;;;20.70;87.10;;;23.78;39.54;98041.69;5130089;28;20326;-79
2023/06/01 06:23:14;;;;;;;5.05;4.47;;;21.20;86.20;;;23.77;39.63;98039.94;5131648;28;20227;-81
2023/06/01 06:25:48;;;;;;;5.15;4.63;;;21.10;85.90;;;24.30;38.93;98049.00;5137359;28;20298;-80
2023/06/01 06:28:21;;;;;;;5.13;4.40;;;21.50;85.40;;;24.50;38.47;98048.25;5135933;28;20220;-79
2023/06/01 06:30:56;;;;;;;7.47;4.80;;;21.70;84.80;;;24.91;38.64;98038.81;5128640;28;20224;-80
2023/06/01 06:33:30;;;;;;;6.13;4.43;;;22.00;85.20;;;25.15;36.49;98036.31;5123753;28;20227;-80
2023/06/01 06:36:04;;;;;;;4.75;4.35;;;22.00;82.90;;;25.39;36.81;98035.47;5123629;28;20236;-79
2023/06/01 06:38:38;;;;;;;6.07;4.78;;;22.30;83.10;;;25.52;36.46;98038.94;5124397;28;20239;-80
2023/06/01 06:41:12;;;;;;;6.32;4.50;;;22.80;81.20;;;25.54;36.49;98039.81;5121316;28;20311;-82
2023/06/01 06:43:46;;;;;;;5.43;4.38;;;22.90;81.20;;;25.72;35.73;98038.06;5122458;28;20530;-81
2023/06/01 06:46:19;;;;;;;4.90;4.50;;;23.10;79.20;;;26.43;34.18;98044.97;5123290;28;20231;-82
2023/06/01 06:48:52;;;;;;;5.25;4.75;;;23.50;78.10;;;26.68;33.93;98039.69;5123446;28;20223;-82
2023/06/01 06:51:26;;;;;;;5.18;4.60;;;23.70;77.30;;;27.00;33.79;98036.00;5122524;28;20231;-80
2023/06/01 06:54:02;;;;;;;6.13;4.45;;;24.10;76.30;;;26.83;33.67;98029.09;5126688;28;20630;-84
2023/06/01 06:56:35;;;;;;;5.05;4.55;;;24.20;76.00;;;26.85;34.12;98032.59;5117923;28;20243;-82
2023/06/01 06:59:10;;;;;;;5.93;4.15;;;24.50;76.00;;;26.87;33.76;98038.72;5126830;28;20231;-80
2023/06/01 07:01:43;;;;;;;5.22;4.00;;;24.30;75.20;;;27.11;33.54;98028.97;5121985;28;20231;-81
2023/06/01 07:04:17;;;;;;;5.88;4.30;;;24.50;75.10;;;27.34;33.17;98029.69;5123884;28;20311;-81
2023/06/01 07:06:51;;;;;;;5.30;4.03;;;24.50;75.10;;;27.19;33.44;98027.19;5125638;28;20226;-82
2023/06/01 07:09:26;;;;;;;5.53;3.95;;;24.70;74.60;;;27.53;33.34;98029.56;5126152;28;20223;-84
2023/06/01 07:11:59;;;;;;;5.32;4.20;;;25.00;74.40;;;27.51;33.73;98026.94;5124244;28;20223;-84
2023/06/01 07:14:33;;;;;;;6.03;4.38;;;24.90;75.00;;;28.07;32.40;98029.97;5126130;28;20327;-81
2023/06/01 07:17:07;;;;;;;4.78;4.20;;;25.10;74.10;;;28.25;31.97;98028.94;5126645;28;20234;-82
2023/06/01 07:19:40;;;;;;;5.15;4.40;;;25.40;73.30;;;28.10;31.60;98026.44;5125941;28;20237;-85
2023/06/01 07:22:15;;;;;;;4.57;4.15;;;25.40;72.30;;;28.13;31.55;98027.31;5125412;28;21116;-85
2023/06/01 07:24:49;;;;;;;5.13;4.30;;;25.60;71.90;;;28.45;31.91;98020.84;5126506;28;20234;-85
2023/06/01 07:27:23;;;;;;;5.15;4.13;;;25.60;72.30;;;28.41;31.83;98029.59;5127353;28;20234;-82
2023/06/01 07:29:56;;;;;;;4.57;4.10;;;25.80;71.70;;;28.60;31.65;98022.41;5126850;28;20238;-82
2023/06/01 07:32:30;;;;;;;6.47;4.10;;;25.90;71.60;;;28.56;31.61;98029.47;5125578;28;20231;-84
2023/06/01 07:35:06;;;;;;;5.60;4.18;;;26.00;71.70;;;28.62;31.52;98018.00;5126883;28;20281;-84
2023/06/01 07:37:40;;;;;;;4.50;4.07;;;26.00;71.70;;;28.88;30.75;98010.63;5125026;28;20274;-84
2023/06/01 07:40:16;;;;;;;4.50;4.10;;;26.40;70.60;;;28.69;30.90;98010.00;5127944;28;20222;-82
2023/06/01 07:42:49;;;;;;;5.43;4.15;;;26.40;69.90;;;29.10;31.04;98019.16;5122570;28;20233;-80
2023/06/01 07:45:23;;;;;;;4.95;4.07;;;26.60;69.90;;;29.16;30.38;98015.56;5124146;28;20243;-83
2023/06/01 07:47:56;;;;;;;5.55;4.40;;;26.50;70.20;;;29.45;29.30;98017.72;5124408;28;20211;-82
2023/06/01 07:50:30;;;;;;;5.25;4.60;;;26.80;68.90;;;29.71;29.79;98019.09;5124628;28;20477;-82
2023/06/01 07:53:04;;;;;;;6.18;4.53;;;26.80;69.00;;;29.54;30.45;98007.03;5124874;28;20750;-81
2023/06/01 07:55:39;;;;;;;4.82;4.35;;;27.00;69.80;;;30.17;29.39;98005.09;5123131;28;20227;-80
2023/06/01 07:58:12;;;;;;;5.30;4.13;;;27.10;68.80;;;30.41;29.50;98003.75;5125412;28;20227;-81
2023/06/01 08:00:46;;;;;;;4.82;4.38;;;27.00;69.60;;;30.86;28.58;98007.22;5123830;28;20263;-80
2023/06/01 08:03:20;;;;;;;5.50;4.28;;;27.30;68.60;;;30.89;30.02;98009.81;5117836;28;20236;-82
2023/06/01 08:05:57;;;;;;;5.50;4.10;;;27.60;70.20;;;31.34;28.10;98012.31;5121903;28;20222;-84
2023/06/01 08:08:30;;;;;;;4.68;4.18;;;27.90;68.30;;;30.88;28.35;98002.81;5120987;28;20238;-79
2023/06/01 08:11:05;;;;;;;5.70;4.43;;;27.50;67.60;;;31.01;29.31;98005.16;5121646;28;20227;-82
2023/06/01 08:13:38;;;;;;;4.45;3.90;;;27.60;70.00;;;31.08;29.51;98004.13;5123205;28;20250;-81
2023/06/01 08:16:12;;;;;;;5.70;4.55;;;28.00;69.60;;;30.79;30.04;98003.00;5121393;28;20707;-78
2023/06/01 08:18:46;;;;;;;6.40;4.25;;;28.30;69.50;;;30.79;29.41;97997.72;5123724;28;20225;-81
2023/06/01 08:21:20;;;;;;;4.97;3.92;;;28.40;67.70;;;30.80;29.56;97996.81;5123808;28;20227;-80
2023/06/01 08:23:55;;;;;;;4.60;4.03;;;28.50;67.10;;;30.53;29.68;97990.31;5121681;28;20235;-79
2023/06/01 08:26:30;;;;;;;4.45;4.05;;;28.40;67.70;;;30.18;30.86;97994.50;5123723;28;20227;-78
2023/06/01 08:29:03;;;;;;;5.13;4.30;;;28.50;68.80;;;30.06;30.35;98000.00;5122979;28;20243;-78
2023/06/01 08:31:38;;;;;;;5.88;4.43;;;28.40;67.20;;;30.40;30.01;97992.34;5121257;28;20350;-79
2023/06/01 08:34:11;;;;;;;4.38;3.95;;;28.50;66.90;;;30.63;29.38;97991.00;5119740;28;20234;-81
2023/06/01 08:36:44;;;;;;;4.65;4.00;;;29.00;66.40;;;30.43;30.07;97988.78;5120742;28;20325;-80
2023/06/01 08:39:23;;;;;;;5.28;4.72;;;28.80;66.80;;;30.07;29.30;97994.69;5120948;28;20237;-80
2023/06/01 08:42:09;;;;;;;4.45;3.70;;;28.40;65.70;;;30.01;29.73;97986.91;5121655;28;21459;-78
2023/06/01 08:44:44;;;;;;;6.30;4.88;;;28.30;66.00;;;30.04;30.38;97992.13;5120204;28;20238;-79
2023/06/01 08:47:17;;;;;;;5.70;4.38;;;28.50;67.30;;;29.98;30.31;97991.38;5115501;28;20238;-79
2023/06/01 08:49:52;;;;;;;5.32;4.28;;;28.50;65.40;;;29.82;29.87;97983.75;5120074;28;20242;-78
2023/06/01 08:52:31;;;;;;;5.75;4.65;;;28.40;65.60;;;29.91;30.24;97980.06;5120335;28;20250;-77
2023/06/01 08:55:06;;;;;;;5.10;4.38;;;28.40;65.40;;;29.79;30.20;97982.91;5121817;28;20693;-78
2023/06/01 08:57:42;;;;;;;5.40;4.63;;;28.40;65.40;;;29.89;30.35;97976.59;5118282;28;20826;-81
2023/06/01 09:00:17;;;;;;;4.85;4.32;;;28.60;65.70;;;30.08;30.77;97975.34;5119646;28;20545;-80
2023/06/01 09:02:51;;;;;;;4.82;4.40;;;28.90;65.70;;;30.15;29.29;97978.72;5115806;28;20245;-80
2023/06/01 09:05:24;;;;;;;4.97;4.53;;;29.10;63.70;;;30.09;29.72;97984.13;5119285;28;20592;-80
2023/06/01 09:07:58;;;;;;;5.35;4.22;;;29.00;64.10;;;29.64;30.41;97976.16;5121249;28;20223;-80
2023/06/01 09:10:31;;;;;;;6.10;4.80;;;28.40;65.60;;;29.47;31.12;97970.28;5122565;28;20971;-80
2023/06/01 09:13:07;;;;;;;6.40;5.18;;;28.30;66.20;;;29.77;29.29;97972.41;5122232;28;20227;-81
2023/06/01 09:15:52;;;;;;;5.32;4.93;;;28.50;63.70;;;29.88;28.97;97974.88;5121821;28;20230;-79
2023/06/01 09:18:26;;;;;;;6.57;5.10;;;28.60;63.20;;;29.80;28.70;97975.00;5120568;28;21016;-80
2023/06/01 09:21:12;;;;;;;5.75;5.00;;;28.70;62.60;;;29.75;29.79;97975.97;5123025;28;20235;-80
2023/06/01 09:23:47;;;;;;;5.72;5.22;;;28.70;64.40;;;29.77;29.83;97977.69;5120568;28;20230;-81
2023/06/01 09:26:28;;;;;;;6.22;5.43;;;28.70;63.80;;;29.64;29.74;97966.47;5120061;28;21031;-81
2023/06/01 09:29:03;;;;;;;6.55;5.63;;;28.70;63.40;;;28.61;30.11;97967.13;5119201;28;20449;-79
2023/06/01 09:31:42;;;;;;;5.50;5.00;;;27.80;62.80;;;28.61;29.77;97964.50;5122613;28;20230;-81
2023/06/01 09:34:18;;;;;;;7.15;5.28;;;27.90;62.00;;;28.43;29.56;97975.28;5121680;28;20790;-80
2023/06/01 09:36:54;;;;;;;7.03;5.47;;;27.60;60.70;;;28.47;30.30;97969.97;5120533;28;20231;-80
2023/06/01 09:39:33;;;;;;;5.63;5.10;;;27.60;62.30;;;28.37;29.25;97965.66;5119419;28;20233;-80
2023/06/01 09:42:08;;;;;;;6.82;5.32;;;27.50;60.70;;;28.59;28.90;97955.78;5118938;28;20227;-82
2023/06/01 09:44:44;;;;;;;6.28;5.32;;;27.60;61.10;;;28.49;29.59;97962.91;5118770;28;20249;-82
2023/06/01 09:47:17;;;;;;;7.28;5.32;;;27.70;62.00;;;27.91;30.66;97955.69;5120806;28;20223;-81
2023/06/01 09:49:52;;;;;;;6.70;5.30;;;27.30;62.30;;;28.08;30.22;97958.13;5122125;28;20274;-79
2023/06/01 09:52:25;;;;;;;6.45;5.32;;;27.30;62.50;;;28.27;29.57;97954.41;5123410;28;20253;-80
2023/06/01 09:55:07;;;;;;;6.00;5.40;;;27.40;61.60;;;28.55;29.91;97947.94;5124188;28;20227;-80
2023/06/01 09:57:40;;;;;;;6.65;5.78;;;27.70;62.30;;;28.57;30.38;97951.44;5123650;28;20219;-80
2023/06/01 10:00:24;;;;;;;7.90;5.40;;;27.90;63.00;;;28.50;28.38;97946.25;5120217;28;20230;-80
2023/06/01 10:02:57;;;;;;;5.65;5.05;;;27.70;59.80;;;28.47;29.36;97940.16;5122951;28;20231;-82
2023/06/01 10:05:31;;;;;;;7.20;5.40;;;27.70;61.60;;;28.72;29.81;97945.94;5119389;28;20238;-80
2023/06/01 10:08:05;;;;;;;5.90;5.40;;;28.00;61.20;;;28.90;27.91;97940.44;5122454;28;20357;-81
2023/06/01 10:10:39;;;;;;;5.68;5.10;;;28.30;59.20;;;27.85;28.80;97950.50;5122851;28;20829;-81
2023/06/01 10:13:13;;;;;;;5.50;5.00;;;27.60;58.90;;;27.79;28.18;97940.06;5120732;28;20231;-80
2023/06/01 10:15:48;;;;;;;6.50;5.88;;;27.10;58.50;;;27.85;28.24;97942.63;5118005;28;20227;-79
2023/06/01 10:18:22;;;;;;;6.03;5.40;;;27.20;58.70;;;28.04;28.81;97936.28;5119367;28;20223;-78
2023/06/01 10:20:57;;;;;;;5.70;5.10;;;27.30;59.20;;;28.00;27.18;97933.69;5117944;28;20234;-79
2023/06/01 10:23:31;;;;;;;5.93;5.32;;;27.30;57.90;;;27.99;27.94;97937.22;5119987;28;20250;-79
2023/06/01 10:26:17;;;;;;;5.80;5.20;;;27.30;58.70;;;28.13;29.17;97935.31;5121262;28;20223;-80
2023/06/01 10:28:51;;;;;;;5.40;4.90;;;27.40;59.90;;;28.44;27.62;97924.41;5122318;28;21244;-80
2023/06/01 10:31:37;;;;;;;7.55;4.85;;;27.60;58.10;;;28.49;28.20;97917.34;5125599;28;20234;-80
2023/06/01 10:34:13;;;;;;;5.40;4.95;;;27.80;58.60;;;28.82;28.04;97918.63;5122907;28;20235;-79
2023/06/01 10:37:18;;;;;;;5.70;4.95;;;28.10;58.20;;;28.82;28.65;97912.50;5124748;28;20231;-80
2023/06/01 10:39:52;;;;;;;5.75;5.22;;;28.20;59.00;;;28.78;29.59;97918.69;5122053;28;20389;-82
2023/06/01 10:42:40;;;;;;;5.28;4.78;;;28.20;60.50;;;28.48;29.49;97910.34;5122565;28;20227;-81
2023/06/01 10:45:41;;;;;;;7.03;5.15;;;27.90;60.70;;;28.80;28.94;97914.28;5121169;28;20271;-81
2023/06/01 10:48:16;;;;;;;5.13;4.68;;;28.00;60.00;;;28.82;27.86;97916.00;5124160;28;20873;-81
2023/06/01 10:51:21;;;;;;;5.55;5.05;;;28.10;58.70;;;28.94;26.97;97905.25;5125113;28;20233;-79
2023/06/01 10:53:54;;;;;;;7.07;5.15;;;28.30;57.40;;;28.69;28.20;97903.91;5118509;28;20227;-80
2023/06/01 10:56:28;;;;;;;5.50;5.00;;;28.00;58.30;;;28.93;26.86;97908.81;5117639;28;21562;-79
2023/06/01 10:59:12;;;;;;;5.75;4.78;;;28.10;57.50;;;28.76;27.55;97913.47;5121045;28;20227;-80